Albert Maersk — OUOW2 — position and weather

sailwx.info

Track history (hours):
 
Tides and Currents Weather Stations Pressure Air Temp Water Temp Dewpoint Dewpoint Depression Visibility Wind Speed Wind Dir Waves Ship Positions

Albert Maersk

Last reported at 2015-May-26 20:32 UTC. Time now 2015-May-30 02:18 UTC.
Position N 30°43' E 032°21'.

MMSI: 220259928.

Date/timePositionNaut miles runAvg speedWind from/ knotsBaromVisibWave heightAir tempDewpointWater temp
2015-May-26 20:32N 30°43' E 032°21'9 8.7
2015-May-26 19:28N 30°52' E 032°19'8 8.9
2015-May-26 18:32N 31°00' E 032°19'9 9.2
2015-May-26 17:33N 31°09' E 032°19'1010.0
2015-May-26 16:33N 31°19' E 032°22'7 6.8
2015-May-26 15:33N 31°26' E 032°21'1 1.0
2015-May-26 14:33N 31°26' E 032°19'0 0.1
2015-May-26 13:33N 31°26' E 032°19'0 0.0
2015-May-26 12:33N 31°26' E 032°19'0 0.0
2015-May-26 11:33N 31°26' E 032°19'0 0.1
2015-May-26 10:33N 31°26' E 032°19'0 0.1
2015-May-26 09:33N 31°26' E 032°19'0 0.0
2015-May-26 08:33N 31°26' E 032°19'0 0.0
2015-May-26 07:30N 31°26' E 032°19'0 0.1
2015-May-26 06:33N 31°26' E 032°19'0 0.0
2015-May-26 05:33N 31°26' E 032°19'0 0.0
2015-May-26 04:33N 31°26' E 032°19'0 0.1
2015-May-26 03:33N 31°26' E 032°19'0 0.1
2015-May-26 02:33N 31°26' E 032°19'0 0.0
2015-May-26 01:33N 31°26' E 032°19'0 0.0
2015-May-26 00:33N 31°26' E 032°19'0 0.0
2015-May-25 23:33N 31°26' E 032°19'0 0.0
2015-May-25 22:33N 31°26' E 032°19'0 0.0
2015-May-25 21:33N 31°26' E 032°19'0 0.0
2015-May-25 20:30N 31°26' E 032°19'0 0.0
2015-May-25 19:30N 31°26' E 032°19'0 0.0
2015-May-25 18:33N 31°26' E 032°19'0 0.2
2015-May-25 17:33N 31°26' E 032°19'4 3.8
2015-May-25 16:34N 31°28' E 032°16'1615.9
2015-May-25 15:33N 31°40' E 032°03'1717.1
2015-May-25 14:33N 31°49' E 031°46'1717.4
2015-May-25 13:33N 31°54' E 031°26'1717.4
2015-May-25 12:33N 31°59' E 031°07'1817.6
2015-May-25 11:33N 32°05' E 030°47'1817.6
2015-May-25 10:33N 32°10' E 030°27'1817.7
2015-May-25 09:33N 32°15' E 030°07'1817.8
2015-May-25 08:33N 32°21' E 029°47'1919.4
2015-May-25 07:33N 32°27' E 029°25'2019.5
2015-May-25 06:32N 32°33' E 029°03'2019.4
2015-May-25 05:29N 32°39' E 028°40'1819.3
2015-May-25 04:32N 32°44' E 028°19'2019.5
2015-May-25 03:32N 32°51' E 027°57'2619.4
2015-May-25 02:11N 32°59' E 027°27'1419.3
2015-May-25 01:26N 33°03' E 027°11'65019.2
2015-May-23 15:33N 36°20' E 014°37'2019.6
2015-May-23 14:33N 36°25' E 014°14'2020.0
2015-May-23 13:33N 36°32' E 013°51'2819.7
2015-May-23 12:07N 36°40' E 013°17'8019.5
2015-May-23 08:00N 37°06' E 011°42'59018.5 320 / 131015.010.8 18.0
2015-May-22 00:08N 36°35' W 000°34'8618.3
2015-May-21 19:28N 36°21' W 002°19'1718.4
2015-May-21 18:33N 36°19' W 002°39'1918.6
2015-May-21 17:33N 36°16' W 003°02'11519.1
2015-May-21 11:33N 35°59' W 005°23'9817.7
2015-May-21 06:00N 35°54' W 007°24'3618.9 090 / 131016.010.8 16.0
2015-May-21 04:05N 36°01' W 008°08'1317.4
2015-May-21 03:20N 36°06' W 008°23'1317.2
2015-May-21 02:34N 36°11' W 008°38'2116.9
2015-May-21 01:18N 36°19' W 009°03'1716.2
2015-May-21 00:15N 36°24' W 009°22'3115.5
2015-May-20 22:15N 36°35' W 009°59'2715.9
2015-May-20 20:33N 36°45' W 010°30'1615.9
2015-May-20 19:33N 36°50' W 010°49'1616.1
2015-May-20 18:33N 36°56' W 011°08'1616.1
2015-May-20 17:32N 37°01' W 011°27'1615.9
2015-May-20 16:33N 37°06' W 011°46'1615.9
2015-May-20 15:33N 37°12' W 012°04'1616.2
2015-May-20 14:33N 37°18' W 012°23'3216.0
2015-May-20 12:32N 37°28' W 013°02'1916.4
2015-May-20 11:22N 37°34' W 013°25'3416.9
2015-May-20 09:22N 37°44' W 014°06'1817.5
2015-May-20 08:20N 37°50' W 014°27'1917.7
2015-May-20 07:16N 37°56' W 014°50'12617.3
2015-May-20 00:00N 38°30' W 017°24'53618.6 020 / 91031.027.0 14.010.517.0
2015-May-18 19:08N 40°28' W 028°41'1218.2
2015-May-18 18:30N 40°30' W 028°56'4318.5
2015-May-18 16:11N 40°35' W 029°52'7517.9
2015-May-18 12:00N 40°42' W 031°30'5019.6 120 / 91026.027.0 1.018.017.816.0
2015-May-18 09:25N 40°50' W 032°36'16917.9
2015-May-18 00:00N 41°06' W 036°18'   090 / 91026.027.0 1.017.017.016.0
Track history (hours):
 
Tides and Currents Weather Stations Pressure Air Temp Water Temp Dewpoint Dewpoint Depression Visibility Wind Speed Wind Dir Waves Ship Positions

Albert Maersk

Last reported at 2015-May-26 20:32 UTC. Time now 2015-May-30 02:18 UTC.
Position N 30°43' E 032°21'.

MMSI: 220259928.

Date/timePositionNaut miles runAvg speedWind from/ knotsBaromVisibWave heightAir tempDewpointWater temp
2015-May-26 20:32N 30°43' E 032°21'9 8.7
2015-May-26 19:28N 30°52' E 032°19'8 8.9
2015-May-26 18:32N 31°00' E 032°19'9 9.2
2015-May-26 17:33N 31°09' E 032°19'1010.0
2015-May-26 16:33N 31°19' E 032°22'7 6.8
2015-May-26 15:33N 31°26' E 032°21'1 1.0
2015-May-26 14:33N 31°26' E 032°19'0 0.1
2015-May-26 13:33N 31°26' E 032°19'0 0.0
2015-May-26 12:33N 31°26' E 032°19'0 0.0
2015-May-26 11:33N 31°26' E 032°19'0 0.1
2015-May-26 10:33N 31°26' E 032°19'0 0.1
2015-May-26 09:33N 31°26' E 032°19'0 0.0
2015-May-26 08:33N 31°26' E 032°19'0 0.0
2015-May-26 07:30N 31°26' E 032°19'0 0.1
2015-May-26 06:33N 31°26' E 032°19'0 0.0
2015-May-26 05:33N 31°26' E 032°19'0 0.0
2015-May-26 04:33N 31°26' E 032°19'0 0.1
2015-May-26 03:33N 31°26' E 032°19'0 0.1
2015-May-26 02:33N 31°26' E 032°19'0 0.0
2015-May-26 01:33N 31°26' E 032°19'0 0.0
2015-May-26 00:33N 31°26' E 032°19'0 0.0
2015-May-25 23:33N 31°26' E 032°19'0 0.0
2015-May-25 22:33N 31°26' E 032°19'0 0.0
2015-May-25 21:33N 31°26' E 032°19'0 0.0
2015-May-25 20:30N 31°26' E 032°19'0 0.0
2015-May-25 19:30N 31°26' E 032°19'0 0.0
2015-May-25 18:33N 31°26' E 032°19'0 0.2
2015-May-25 17:33N 31°26' E 032°19'4 3.8
2015-May-25 16:34N 31°28' E 032°16'1615.9
2015-May-25 15:33N 31°40' E 032°03'1717.1
2015-May-25 14:33N 31°49' E 031°46'1717.4
2015-May-25 13:33N 31°54' E 031°26'1717.4
2015-May-25 12:33N 31°59' E 031°07'1817.6
2015-May-25 11:33N 32°05' E 030°47'1817.6
2015-May-25 10:33N 32°10' E 030°27'1817.7
2015-May-25 09:33N 32°15' E 030°07'1817.8
2015-May-25 08:33N 32°21' E 029°47'1919.4
2015-May-25 07:33N 32°27' E 029°25'2019.5
2015-May-25 06:32N 32°33' E 029°03'2019.4
2015-May-25 05:29N 32°39' E 028°40'1819.3
2015-May-25 04:32N 32°44' E 028°19'2019.5
2015-May-25 03:32N 32°51' E 027°57'2619.4
2015-May-25 02:11N 32°59' E 027°27'1419.3
2015-May-25 01:26N 33°03' E 027°11'65019.2
2015-May-23 15:33N 36°20' E 014°37'2019.6
2015-May-23 14:33N 36°25' E 014°14'2020.0
2015-May-23 13:33N 36°32' E 013°51'2819.7
2015-May-23 12:07N 36°40' E 013°17'8019.5
2015-May-23 08:00N 37°06' E 011°42'59018.5 320 / 131015.010.8 18.0
2015-May-22 00:08N 36°35' W 000°34'8618.3
2015-May-21 19:28N 36°21' W 002°19'1718.4
2015-May-21 18:33N 36°19' W 002°39'1918.6
2015-May-21 17:33N 36°16' W 003°02'11519.1
2015-May-21 11:33N 35°59' W 005°23'9817.7
2015-May-21 06:00N 35°54' W 007°24'3618.9 090 / 131016.010.8 16.0
2015-May-21 04:05N 36°01' W 008°08'1317.4
2015-May-21 03:20N 36°06' W 008°23'1317.2
2015-May-21 02:34N 36°11' W 008°38'2116.9
2015-May-21 01:18N 36°19' W 009°03'1716.2
2015-May-21 00:15N 36°24' W 009°22'3115.5
2015-May-20 22:15N 36°35' W 009°59'2715.9
2015-May-20 20:33N 36°45' W 010°30'1615.9
2015-May-20 19:33N 36°50' W 010°49'1616.1
2015-May-20 18:33N 36°56' W 011°08'1616.1
2015-May-20 17:32N 37°01' W 011°27'1615.9
2015-May-20 16:33N 37°06' W 011°46'1615.9
2015-May-20 15:33N 37°12' W 012°04'1616.2
2015-May-20 14:33N 37°18' W 012°23'3216.0
2015-May-20 12:32N 37°28' W 013°02'1916.4
2015-May-20 11:22N 37°34' W 013°25'3416.9
2015-May-20 09:22N 37°44' W 014°06'1817.5
2015-May-20 08:20N 37°50' W 014°27'1917.7
2015-May-20 07:16N 37°56' W 014°50'12617.3
2015-May-20 00:00N 38°30' W 017°24'53618.6 020 / 91031.027.0 14.010.517.0
2015-May-18 19:08N 40°28' W 028°41'1218.2
2015-May-18 18:30N 40°30' W 028°56'4318.5
2015-May-18 16:11N 40°35' W 029°52'7517.9
2015-May-18 12:00N 40°42' W 031°30'5019.6 120 / 91026.027.0 1.018.017.816.0
2015-May-18 09:25N 40°50' W 032°36'16917.9
2015-May-18 00:00N 41°06' W 036°18'   090 / 91026.027.0 1.017.017.016.0

Dump ship's entire track history